createdAt,value
2023-03-16T00:00:43.102Z,15.43
2023-03-16T00:03:19.562Z,19.15
2023-03-16T00:05:50.138Z,16.10
2023-03-16T00:08:17.486Z,13.70
2023-03-16T00:10:47.325Z,25.80
2023-03-16T00:13:14.997Z,16.50
2023-03-16T00:15:41.966Z,14.50
2023-03-16T00:18:08.512Z,15.13
2023-03-16T00:20:35.285Z,13.10
2023-03-16T00:23:02.759Z,17.23
2023-03-16T00:25:29.724Z,20.63
2023-03-16T00:27:56.380Z,20.70
2023-03-16T00:30:22.936Z,18.55
2023-03-16T00:32:50.327Z,19.88
2023-03-16T00:35:17.231Z,18.52
2023-03-16T00:37:44.317Z,18.27
2023-03-16T00:40:12.568Z,17.38
2023-03-16T00:42:40.397Z,14.35
2023-03-16T00:45:07.430Z,15.02
2023-03-16T00:47:34.868Z,18.83
2023-03-16T00:50:02.275Z,20.58
2023-03-16T00:52:28.841Z,21.45
2023-03-16T00:54:57.442Z,20.52
2023-03-16T00:57:28.089Z,18.02
2023-03-16T00:59:56.578Z,27.70
2023-03-16T01:02:26.049Z,20.17
2023-03-16T01:04:54.697Z,20.10
2023-03-16T01:07:21.945Z,18.77
2023-03-16T01:09:48.612Z,17.42
2023-03-16T01:12:17.236Z,20.77
2023-03-16T01:14:47.845Z,17.70
2023-03-16T01:17:15.136Z,20.25
2023-03-16T01:19:43.047Z,16.67
2023-03-16T01:22:10.424Z,27.30
2023-03-16T01:24:38.630Z,19.33
2023-03-16T01:27:06.344Z,22.42
2023-03-16T01:29:33.197Z,22.30
2023-03-16T01:32:00.118Z,29.98
2023-03-16T01:34:26.620Z,21.95
2023-03-16T01:36:53.241Z,23.35
2023-03-16T01:39:27.243Z,25.70
2023-03-16T01:41:54.310Z,31.83
2023-03-16T01:44:24.410Z,28.38
2023-03-16T01:46:51.231Z,21.52
2023-03-16T01:49:20.612Z,21.20
2023-03-16T01:51:53.246Z,21.90
2023-03-16T01:54:40.891Z,17.83
2023-03-16T01:57:10.487Z,19.85
2023-03-16T01:59:39.998Z,21.65
2023-03-16T02:02:07.895Z,19.70
2023-03-16T02:04:34.420Z,24.50
2023-03-16T02:07:04.755Z,24.10
2023-03-16T02:09:32.051Z,29.48
2023-03-16T02:11:58.872Z,19.65
2023-03-16T02:14:27.291Z,17.83
2023-03-16T02:16:55.755Z,21.25
2023-03-16T02:19:34.342Z,22.10
2023-03-16T02:22:08.360Z,21.40
2023-03-16T02:24:36.017Z,22.05
2023-03-16T02:27:07.942Z,24.20
2023-03-16T02:29:52.826Z,20.40
2023-03-16T02:32:21.190Z,24.02
2023-03-16T02:34:47.675Z,20.02
2023-03-16T02:37:14.292Z,16.70
2023-03-16T02:39:44.126Z,21.58
2023-03-16T02:42:15.529Z,18.67
2023-03-16T02:44:44.770Z,23.73
2023-03-16T02:47:35.509Z,23.35
2023-03-16T02:50:06.490Z,20.45
2023-03-16T02:52:43.373Z,20.17
2023-03-16T02:55:21.123Z,21.23
2023-03-16T03:00:39.230Z,23.10
2023-03-16T03:03:18.415Z,20.50
2023-03-16T03:05:54.983Z,31.02
2023-03-16T03:08:24.603Z,26.63
2023-03-16T03:10:51.388Z,21.38
2023-03-16T03:13:17.884Z,27.80
2023-03-16T03:15:45.411Z,25.48
2023-03-16T03:18:14.690Z,21.75
2023-03-16T03:20:41.503Z,23.85
2023-03-16T03:23:09.809Z,29.92
2023-03-16T03:25:36.320Z,35.40
2023-03-16T03:28:05.564Z,26.17
2023-03-16T03:30:32.572Z,24.58
2023-03-16T03:32:59.234Z,22.95
2023-03-16T03:35:25.836Z,25.50
2023-03-16T03:37:52.512Z,22.30
2023-03-16T03:40:20.075Z,19.80
2023-03-16T03:42:51.377Z,21.30
2023-03-16T03:45:18.324Z,21.30
2023-03-16T03:47:44.864Z,25.67
2023-03-16T03:50:16.700Z,18.63
2023-03-16T03:53:05.177Z,18.63
2023-03-16T03:55:37.896Z,20.58
2023-03-16T03:58:04.497Z,18.98
2023-03-16T04:00:31.199Z,19.67
2023-03-16T04:02:57.905Z,18.20
2023-03-16T04:05:47.495Z,15.18
2023-03-16T04:08:14.455Z,16.90
2023-03-16T04:10:41.162Z,16.58
2023-03-16T04:13:07.669Z,15.40
2023-03-16T04:15:35.192Z,15.30
2023-03-16T04:18:08.194Z,14.70
2023-03-16T04:20:35.200Z,16.42
2023-03-16T04:23:01.726Z,15.57
2023-03-16T04:25:30.798Z,15.85
2023-03-16T04:27:58.450Z,15.43
2023-03-16T04:30:28.725Z,16.35
2023-03-16T04:33:04.615Z,19.55
2023-03-16T04:35:32.010Z,14.32
2023-03-16T04:37:58.650Z,20.00
2023-03-16T04:40:36.168Z,16.70
2023-03-16T04:43:09.367Z,17.67
2023-03-16T04:45:36.528Z,19.50
2023-03-16T04:48:03.235Z,13.85
2023-03-16T04:50:31.192Z,12.50
2023-03-16T04:52:57.791Z,13.38
2023-03-16T04:55:25.216Z,12.30
2023-03-16T04:57:52.621Z,15.27
2023-03-16T05:00:21.445Z,16.17
2023-03-16T05:02:56.315Z,16.02
2023-03-16T05:05:23.034Z,11.82
2023-03-16T05:07:49.610Z,15.07
2023-03-16T05:10:18.992Z,13.50
2023-03-16T05:12:46.873Z,15.15
2023-03-16T05:15:14.550Z,21.23
2023-03-16T05:17:42.780Z,11.35
2023-03-16T05:20:14.064Z,14.45
2023-03-16T05:22:46.518Z,14.00
2023-03-16T05:25:17.758Z,21.27
2023-03-16T05:27:48.826Z,14.48
2023-03-16T05:30:21.860Z,13.75
2023-03-16T05:32:49.013Z,14.50
2023-03-16T05:35:16.173Z,18.08
2023-03-16T05:37:43.492Z,15.75
2023-03-16T05:40:18.269Z,16.90
2023-03-16T05:42:55.328Z,16.40
2023-03-16T05:45:23.606Z,15.60
2023-03-16T05:48:05.844Z,17.20
2023-03-16T05:50:36.500Z,14.65
2023-03-16T05:53:03.885Z,18.52
2023-03-16T05:55:30.424Z,13.30
2023-03-16T05:58:00.698Z,15.95
2023-03-16T06:00:27.884Z,13.68
2023-03-16T06:03:05.920Z,15.38
2023-03-16T06:05:35.546Z,14.27
2023-03-16T06:08:03.581Z,14.50
2023-03-16T06:10:31.042Z,14.23
2023-03-16T06:12:59.778Z,18.45
2023-03-16T06:15:26.729Z,16.20
2023-03-16T06:17:54.914Z,18.83
2023-03-16T06:20:21.797Z,19.38
2023-03-16T06:22:48.545Z,19.13
2023-03-16T06:25:15.137Z,20.42
2023-03-16T06:27:43.518Z,15.10
2023-03-16T06:30:15.273Z,15.23
2023-03-16T06:32:45.854Z,16.33
2023-03-16T06:35:12.919Z,15.75
2023-03-16T06:37:44.666Z,14.95
2023-03-16T06:40:31.530Z,14.45
2023-03-16T06:42:58.197Z,12.85
2023-03-16T06:45:25.714Z,13.43
2023-03-16T06:47:54.514Z,14.00
2023-03-16T06:50:21.453Z,15.57
2023-03-16T06:52:47.958Z,17.13
2023-03-16T06:55:14.810Z,15.18
2023-03-16T06:57:45.190Z,11.63
2023-03-16T07:00:14.130Z,15.88
2023-03-16T07:02:41.158Z,21.85
2023-03-16T07:05:11.032Z,10.57
2023-03-16T07:07:37.734Z,13.40
2023-03-16T07:10:04.456Z,12.57
2023-03-16T07:12:31.402Z,13.10
2023-03-16T07:14:58.003Z,17.98
2023-03-16T07:17:25.163Z,10.23
2023-03-16T07:19:51.724Z,8.05
2023-03-16T07:22:18.467Z,10.65
2023-03-16T07:24:45.317Z,9.45
2023-03-16T07:27:12.683Z,12.13
2023-03-16T07:29:39.927Z,13.85
2023-03-16T07:32:09.996Z,11.45
2023-03-16T07:34:38.121Z,10.68
2023-03-16T07:37:05.338Z,11.60
2023-03-16T07:39:33.025Z,8.32
2023-03-16T07:42:06.361Z,10.57
2023-03-16T07:44:58.153Z,7.10
2023-03-16T07:47:26.563Z,10.00
2023-03-16T07:49:56.542Z,11.23
2023-03-16T07:52:24.138Z,11.88
2023-03-16T07:54:51.894Z,9.40
2023-03-16T07:57:18.601Z,9.60
2023-03-16T07:59:45.293Z,11.27
2023-03-16T08:02:15.421Z,10.48
2023-03-16T08:04:42.770Z,7.43
2023-03-16T08:07:10.301Z,7.78
2023-03-16T08:09:57.312Z,11.82
2023-03-16T08:12:30.744Z,15.25
2023-03-16T08:14:57.945Z,5.47
2023-03-16T08:17:27.969Z,9.35
2023-03-16T08:19:55.360Z,9.40
2023-03-16T08:22:23.720Z,5.65
2023-03-16T08:24:50.604Z,11.75
2023-03-16T08:27:19.690Z,8.98
2023-03-16T08:29:53.427Z,5.57
2023-03-16T08:32:22.367Z,7.82
2023-03-16T08:34:50.128Z,9.10
2023-03-16T08:37:17.547Z,5.07
2023-03-16T08:39:45.714Z,10.02
2023-03-16T08:42:16.217Z,5.10
2023-03-16T08:44:47.999Z,6.88
2023-03-16T08:47:15.006Z,14.52
2023-03-16T08:49:44.763Z,5.03
2023-03-16T08:52:14.086Z,8.55
2023-03-16T08:54:47.130Z,3.40
2023-03-16T08:57:19.574Z,8.52
2023-03-16T08:59:46.049Z,6.03
2023-03-16T09:02:14.362Z,6.57
2023-03-16T09:04:41.278Z,6.25
2023-03-16T09:07:09.912Z,7.22
2023-03-16T09:09:36.656Z,6.32
2023-03-16T09:12:05.057Z,5.97
2023-03-16T09:14:32.074Z,3.63
2023-03-16T09:16:58.590Z,9.48
2023-03-16T09:19:25.323Z,7.30
2023-03-16T09:21:51.771Z,4.97
2023-03-16T09:24:18.487Z,6.65
2023-03-16T09:26:45.767Z,8.82
2023-03-16T09:29:12.912Z,7.20
2023-03-16T09:31:39.834Z,6.03
2023-03-16T09:34:06.429Z,5.25
2023-03-16T09:36:36.052Z,5.78
2023-03-16T09:39:04.085Z,5.88
2023-03-16T09:41:42.894Z,5.18
2023-03-16T09:44:16.088Z,4.97
2023-03-16T09:46:45.444Z,6.30
2023-03-16T09:49:13.145Z,5.35
2023-03-16T09:51:43.446Z,3.88
2023-03-16T09:54:56.395Z,7.07
2023-03-16T09:58:00.042Z,7.20
2023-03-16T10:01:04.459Z,5.03
2023-03-16T10:03:46.165Z,3.47
2023-03-16T10:06:33.214Z,7.30
2023-03-16T10:09:00.788Z,2.47
2023-03-16T10:11:48.441Z,7.45
2023-03-16T10:14:33.772Z,4.82
2023-03-16T10:17:01.149Z,3.53
2023-03-16T10:19:37.756Z,6.75
2023-03-16T10:22:13.549Z,2.88
2023-03-16T10:24:58.449Z,4.32
2023-03-16T10:27:36.598Z,3.35
2023-03-16T10:30:08.315Z,7.55
2023-03-16T10:32:36.618Z,5.60
2023-03-16T10:35:07.070Z,4.65
2023-03-16T10:37:35.435Z,4.22
2023-03-16T10:40:08.973Z,3.40
2023-03-16T10:42:37.126Z,4.72
2023-03-16T10:45:03.797Z,6.03
2023-03-16T10:47:31.741Z,3.58
2023-03-16T10:49:59.065Z,4.03
2023-03-16T10:52:34.510Z,4.63
2023-03-16T10:55:10.328Z,8.05
2023-03-16T10:57:41.420Z,6.03
2023-03-16T11:00:15.693Z,6.00
2023-03-16T11:02:44.013Z,5.78
2023-03-16T11:05:19.638Z,5.65
2023-03-16T11:07:57.898Z,3.55
2023-03-16T11:10:36.142Z,7.65
2023-03-16T11:13:18.483Z,6.82
2023-03-16T11:15:48.884Z,4.05
2023-03-16T11:18:30.987Z,6.38
2023-03-16T11:21:32.105Z,4.70
2023-03-16T11:23:58.760Z,2.67
2023-03-16T11:26:25.311Z,3.05
2023-03-16T11:28:56.476Z,7.07
2023-03-16T11:31:28.801Z,7.93
2023-03-16T11:33:57.534Z,5.03
2023-03-16T11:36:47.668Z,2.20
2023-03-16T11:39:26.623Z,3.00
2023-03-16T11:42:11.891Z,2.28
2023-03-16T11:44:45.176Z,4.68
2023-03-16T11:47:24.218Z,4.43
2023-03-16T11:49:54.801Z,3.35
2023-03-16T11:52:47.620Z,6.88
2023-03-16T11:55:14.482Z,3.33
2023-03-16T11:57:44.057Z,1.85
2023-03-16T12:00:16.776Z,3.38
2023-03-16T12:02:46.504Z,4.80
2023-03-16T12:05:23.422Z,5.75
2023-03-16T12:07:56.739Z,5.25
2023-03-16T12:10:30.372Z,4.53
2023-03-16T12:13:02.050Z,5.13
2023-03-16T12:15:42.730Z,9.50
2023-03-16T12:18:13.262Z,3.83
2023-03-16T12:20:48.817Z,5.28
2023-03-16T12:25:46.103Z,2.13
2023-03-16T12:28:39.455Z,4.07
2023-03-16T12:31:24.977Z,5.45
2023-03-16T12:34:14.930Z,3.78
2023-03-16T12:36:47.581Z,3.67
2023-03-16T12:39:45.740Z,2.80
2023-03-16T12:42:12.638Z,3.65
2023-03-16T12:44:53.749Z,3.60
2023-03-16T12:47:29.551Z,2.72
2023-03-16T12:50:03.620Z,2.05
2023-03-16T12:52:38.926Z,3.08
2023-03-16T12:55:07.402Z,2.53
2023-03-16T12:57:33.973Z,1.23
2023-03-16T13:00:01.248Z,3.10
2023-03-16T13:02:31.360Z,4.68
2023-03-16T13:05:02.700Z,3.47
2023-03-16T13:07:31.300Z,3.63
2023-03-16T13:10:02.448Z,1.88
2023-03-16T13:12:37.213Z,4.70
2023-03-16T13:15:26.884Z,2.78
2023-03-16T13:18:24.154Z,4.03
2023-03-16T13:20:53.524Z,3.17
2023-03-16T13:23:23.314Z,3.35
2023-03-16T13:26:09.191Z,2.72
2023-03-16T13:28:37.736Z,3.58
2023-03-16T13:31:06.157Z,5.38
2023-03-16T13:33:36.974Z,3.42
2023-03-16T13:36:06.102Z,3.78
2023-03-16T13:38:32.823Z,4.30
2023-03-16T13:41:09.062Z,3.95
2023-03-16T13:43:38.236Z,7.47
2023-03-16T13:46:18.189Z,6.65
2023-03-16T13:48:47.309Z,5.78
2023-03-16T13:51:16.195Z,4.45
2023-03-16T13:53:43.367Z,4.18
2023-03-16T13:56:13.176Z,3.25
2023-03-16T13:58:40.320Z,4.38
2023-03-16T14:01:14.574Z,4.90
2023-03-16T14:03:42.409Z,3.10
2023-03-16T14:06:22.860Z,3.70
2023-03-16T14:08:51.212Z,4.70
2023-03-16T14:11:17.711Z,5.07
2023-03-16T14:13:50.160Z,5.80
2023-03-16T14:16:18.402Z,4.55
2023-03-16T14:18:46.296Z,6.40
2023-03-16T14:21:17.681Z,3.92
2023-03-16T14:23:45.489Z,3.20
2023-03-16T14:26:16.080Z,4.88
2023-03-16T14:28:54.563Z,6.97
2023-03-16T14:31:21.382Z,4.80
2023-03-16T14:33:47.830Z,2.92
2023-03-16T14:36:15.965Z,5.50
2023-03-16T14:38:43.703Z,4.03
2023-03-16T14:41:26.560Z,3.38
2023-03-16T14:44:00.495Z,3.20
2023-03-16T14:46:29.460Z,5.85
2023-03-16T14:49:15.254Z,4.75
2023-03-16T14:51:41.946Z,4.85
2023-03-16T14:54:27.373Z,4.57
2023-03-16T14:56:55.491Z,3.38
2023-03-16T14:59:22.060Z,3.45
2023-03-16T15:01:49.601Z,3.50
2023-03-16T15:04:19.456Z,7.05
2023-03-16T15:06:47.311Z,5.25
2023-03-16T15:09:40.272Z,2.88
2023-03-16T15:12:17.897Z,4.95
2023-03-16T15:15:03.373Z,5.05
2023-03-16T15:17:30.478Z,4.28
2023-03-16T15:19:56.998Z,3.97
2023-03-16T15:22:32.361Z,4.32
2023-03-16T15:25:00.109Z,3.78
2023-03-16T15:27:33.929Z,4.00
2023-03-16T15:30:00.899Z,6.93
2023-03-16T15:32:27.484Z,6.43
2023-03-16T15:34:54.202Z,7.88
2023-03-16T15:37:23.128Z,8.20
2023-03-16T15:39:49.604Z,7.55
2023-03-16T15:42:17.026Z,6.00
2023-03-16T15:44:43.835Z,6.55
2023-03-16T15:47:10.876Z,6.68
2023-03-16T15:49:47.265Z,9.23
2023-03-16T15:52:30.464Z,5.82
2023-03-16T15:55:01.253Z,8.32
2023-03-16T15:57:28.143Z,9.18
2023-03-16T15:59:54.681Z,4.25
2023-03-16T16:02:29.021Z,6.13
2023-03-16T16:04:56.176Z,5.93
2023-03-16T16:07:23.388Z,7.93
2023-03-16T16:09:51.136Z,4.78
2023-03-16T16:12:18.008Z,3.17
2023-03-16T16:14:44.614Z,5.70
2023-03-16T16:17:12.144Z,4.47
2023-03-16T16:19:39.247Z,4.70
2023-03-16T16:22:11.775Z,5.00
2023-03-16T16:24:38.477Z,8.73
2023-03-16T16:27:06.547Z,9.80
2023-03-16T16:29:34.081Z,7.43
2023-03-16T16:32:00.824Z,7.05
2023-03-16T16:34:28.022Z,6.10
2023-03-16T16:36:55.322Z,5.78
2023-03-16T16:39:22.128Z,6.63
2023-03-16T16:41:49.856Z,4.43
2023-03-16T16:44:23.609Z,5.95
2023-03-16T16:46:50.844Z,6.72
2023-03-16T16:49:24.595Z,6.13
2023-03-16T16:51:52.114Z,5.03
2023-03-16T16:54:20.481Z,5.60
2023-03-16T16:56:48.881Z,6.88
2023-03-16T16:59:18.423Z,5.72
2023-03-16T17:01:46.531Z,5.20
2023-03-16T17:04:17.373Z,6.47
2023-03-16T17:06:44.406Z,7.00
2023-03-16T17:09:12.390Z,7.88
2023-03-16T17:11:39.055Z,8.55
2023-03-16T17:14:07.614Z,11.25
2023-03-16T17:16:37.980Z,9.82
2023-03-16T17:19:07.076Z,6.43
2023-03-16T17:21:33.588Z,10.95
2023-03-16T17:24:00.521Z,13.10
2023-03-16T17:26:31.114Z,14.02
2023-03-16T17:29:10.474Z,13.20
2023-03-16T17:31:38.928Z,15.00
2023-03-16T17:34:22.261Z,17.77
2023-03-16T17:36:49.457Z,17.05
2023-03-16T17:39:24.140Z,18.02
2023-03-16T17:42:00.956Z,16.23
2023-03-16T17:44:31.373Z,14.70
2023-03-16T17:46:57.953Z,16.35
2023-03-16T17:49:28.322Z,13.13
2023-03-16T17:51:55.650Z,16.58
2023-03-16T17:54:22.387Z,13.30
2023-03-16T17:56:50.670Z,13.45
2023-03-16T17:59:18.644Z,10.35
2023-03-16T18:01:47.017Z,12.30
2023-03-16T18:04:21.255Z,12.23
2023-03-16T18:06:48.200Z,9.55
2023-03-16T18:09:18.831Z,11.32
2023-03-16T18:11:47.606Z,12.43
2023-03-16T18:14:20.616Z,10.82
2023-03-16T18:16:47.264Z,8.65
2023-03-16T18:19:27.348Z,8.30
2023-03-16T18:21:53.889Z,14.43
2023-03-16T18:24:22.228Z,10.15
2023-03-16T18:26:49.043Z,9.25
2023-03-16T18:29:15.517Z,9.27
2023-03-16T18:31:42.730Z,9.80
2023-03-16T18:34:17.315Z,11.30
2023-03-16T18:36:45.975Z,13.02
2023-03-16T18:39:18.592Z,16.30
2023-03-16T18:41:47.011Z,10.52
2023-03-16T18:44:18.748Z,10.38
2023-03-16T18:46:46.291Z,11.40
2023-03-16T18:49:20.421Z,8.77
2023-03-16T18:51:49.185Z,14.85
2023-03-16T18:54:30.582Z,12.98
2023-03-16T18:56:59.071Z,17.63
2023-03-16T18:59:26.040Z,16.88
2023-03-16T19:01:53.196Z,21.25
2023-03-16T19:04:30.784Z,13.05
2023-03-16T19:06:57.506Z,11.90
2023-03-16T19:09:25.473Z,9.70
2023-03-16T19:11:52.091Z,14.10
2023-03-16T19:14:23.578Z,9.32
2023-03-16T19:16:50.958Z,9.90
2023-03-16T19:19:21.364Z,9.80
2023-03-16T19:21:49.012Z,8.07
2023-03-16T19:24:26.717Z,8.90
2023-03-16T19:26:53.989Z,8.45
2023-03-16T19:29:23.908Z,9.20
2023-03-16T19:31:51.422Z,9.73
2023-03-16T19:34:18.045Z,10.02
2023-03-16T19:36:44.654Z,8.55
2023-03-16T19:39:15.554Z,10.63
2023-03-16T19:41:43.509Z,14.43
2023-03-16T19:44:13.040Z,10.02
2023-03-16T19:46:40.023Z,10.60
2023-03-16T19:49:11.938Z,8.25
2023-03-16T19:51:38.641Z,7.40
2023-03-16T19:54:05.415Z,7.22
2023-03-16T19:56:32.436Z,5.65
2023-03-16T19:58:58.902Z,9.20
2023-03-16T20:01:32.222Z,16.27
2023-03-16T20:03:59.678Z,7.00
2023-03-16T20:06:26.452Z,9.65
2023-03-16T20:08:53.311Z,9.60
2023-03-16T20:11:26.063Z,8.93
2023-03-16T20:13:52.950Z,9.68
2023-03-16T20:16:24.866Z,11.65
2023-03-16T20:18:55.653Z,8.48
2023-03-16T20:21:22.205Z,10.20
2023-03-16T20:23:49.274Z,6.57
2023-03-16T20:26:22.005Z,8.25
2023-03-16T20:28:49.038Z,10.13
2023-03-16T20:31:22.813Z,8.75
2023-03-16T20:33:50.682Z,12.00
2023-03-16T20:36:17.399Z,9.30
2023-03-16T20:38:44.531Z,9.35
2023-03-16T20:41:38.676Z,11.95
2023-03-16T20:44:05.899Z,6.80
2023-03-16T20:46:33.052Z,6.22
2023-03-16T20:49:00.735Z,9.50
2023-03-16T20:51:28.676Z,8.95
2023-03-16T20:53:55.428Z,8.88
2023-03-16T20:56:23.314Z,8.50
2023-03-16T20:58:50.918Z,9.18
2023-03-16T21:01:20.586Z,9.35
2023-03-16T21:03:52.128Z,8.05
2023-03-16T21:06:30.019Z,7.55
2023-03-16T21:08:58.272Z,12.43
2023-03-16T21:11:25.865Z,9.50
2023-03-16T21:13:53.009Z,7.78
2023-03-16T21:16:20.807Z,8.85
2023-03-16T21:18:47.907Z,7.72
2023-03-16T21:21:19.232Z,9.10
2023-03-16T21:23:48.809Z,8.85
2023-03-16T21:26:16.963Z,9.63
2023-03-16T21:28:44.166Z,10.45
2023-03-16T21:31:14.625Z,9.10
2023-03-16T21:33:41.705Z,7.05
2023-03-16T21:36:18.317Z,8.75
2023-03-16T21:38:45.340Z,10.10
2023-03-16T21:41:12.246Z,6.32
2023-03-16T21:43:39.549Z,7.60
2023-03-16T21:46:06.933Z,4.88
2023-03-16T21:48:36.289Z,7.03
2023-03-16T21:51:03.035Z,7.55
2023-03-16T21:53:31.780Z,5.18
2023-03-16T21:55:58.764Z,9.07
2023-03-16T21:58:25.343Z,7.40
2023-03-16T22:00:52.662Z,6.93
2023-03-16T22:03:40.829Z,4.75
2023-03-16T22:06:16.512Z,5.93
2023-03-16T22:08:43.250Z,7.70
2023-03-16T22:11:16.925Z,7.07
2023-03-16T22:13:43.534Z,7.07
2023-03-16T22:16:17.668Z,8.15
2023-03-16T22:18:48.419Z,11.90
2023-03-16T22:21:33.536Z,6.55
2023-03-16T22:24:01.123Z,5.32
2023-03-16T22:26:28.603Z,5.43
2023-03-16T22:28:56.289Z,5.40
2023-03-16T22:31:29.139Z,6.00
2023-03-16T22:33:55.799Z,5.22
2023-03-16T22:36:25.312Z,6.93
2023-03-16T22:38:58.072Z,4.47
2023-03-16T22:41:24.635Z,7.95
2023-03-16T22:43:51.328Z,6.43
2023-03-16T22:46:23.316Z,5.70
2023-03-16T22:48:51.479Z,4.72
2023-03-16T22:51:30.058Z,6.68
2023-03-16T22:53:59.832Z,4.28
2023-03-16T22:56:27.248Z,4.50
2023-03-16T22:58:58.998Z,3.22
2023-03-16T23:01:42.605Z,6.82
2023-03-16T23:04:19.946Z,5.43
2023-03-16T23:06:47.284Z,7.72
2023-03-16T23:09:15.427Z,4.43
2023-03-16T23:11:43.756Z,5.57
2023-03-16T23:14:14.575Z,6.10
2023-03-16T23:16:41.846Z,6.68
2023-03-16T23:19:27.902Z,5.32
2023-03-16T23:21:55.477Z,3.97
2023-03-16T23:24:22.329Z,4.50
2023-03-16T23:26:49.231Z,5.53
2023-03-16T23:29:15.792Z,6.45
2023-03-16T23:31:42.534Z,3.63
2023-03-16T23:34:12.578Z,4.15
2023-03-16T23:36:39.113Z,11.43
2023-03-16T23:39:06.149Z,4.07
2023-03-16T23:41:33.642Z,5.80
2023-03-16T23:44:00.623Z,7.00
2023-03-16T23:46:29.193Z,3.63
2023-03-16T23:48:57.131Z,7.57
2023-03-16T23:51:41.492Z,5.57
2023-03-16T23:54:17.689Z,8.35
2023-03-16T23:56:44.187Z,6.45
2023-03-16T23:59:14.046Z,4.75
